Time;durP1;ratioP1;P1;durP2;ratioP2;P2;SDS_P1;SDS_P2;PMS_P1;PMS_P2;Temp;Humidity;BMP_temperature;BMP_pressure;BME280_temperature;BME280_humidity;BME280_pressure;Samples;Min_cycle;Max_cycle;Signal;HPM_P1;HPM_P2
2022/07/04 00:00:02;;;;;;;;;;;17.20;99.90;;;;;;5088565;28;19920;-66
2022/07/04 00:02:29;;;;;;;;;;;17.10;99.90;;;;;;5054982;28;20016;-66
2022/07/04 00:04:55;;;;;;;;;;;17.00;99.90;;;;;;5056330;28;20345;-65
2022/07/04 00:07:22;;;;;;;;;;;16.80;99.90;;;;;;5055875;28;19916;-65
2022/07/04 00:09:49;;;;;;;;;;;16.70;99.90;;;;;;5055940;28;19917;-65
2022/07/04 00:12:16;;;;;;;;;;;16.60;99.90;;;;;;5055929;28;20378;-65
2022/07/04 00:14:43;;;;;;;;;;;16.50;99.90;;;;;;5056395;28;20245;-66
2022/07/04 00:17:10;;;;;;;;;;;16.40;99.90;;;;;;5088429;28;19921;-67
2022/07/04 00:19:37;;;;;;;;;;;16.30;99.90;;;;;;5056037;28;20268;-67
2022/07/04 00:22:04;;;;;;;;;;;16.20;99.90;;;;;;5056898;28;19916;-64
2022/07/04 00:24:31;;;;;;;;;;;16.10;99.90;;;;;;5055989;28;19931;-65
2022/07/04 00:26:57;;;;;;;;;;;16.10;99.90;;;;;;5055834;28;20402;-65
2022/07/04 00:29:24;;;;;;;;;;;16.10;99.90;;;;;;5055958;28;19917;-65
2022/07/04 00:31:52;;;;;;;;;;;16.00;99.90;;;;;;5056444;28;20014;-65
2022/07/04 00:34:18;;;;;;;;;;;16.00;99.90;;;;;;5055477;28;19923;-65
2022/07/04 00:36:45;;;;;;;;;;;15.90;99.90;;;;;;5087528;28;19924;-66
2022/07/04 00:39:12;;;;;;;;;;;15.90;99.90;;;;;;5054499;28;20050;-66
2022/07/04 00:41:39;;;;;;;;;;;15.90;99.90;;;;;;5088378;28;19924;-66
2022/07/04 00:44:06;;;;;;;;;;;15.80;99.90;;;;;;5055332;28;20276;-66
2022/07/04 00:46:38;;;;;;;;;;;15.80;99.90;;;;;;5055376;28;19916;-65
2022/07/04 00:49:05;;;;;;;;;;;15.80;99.90;;;;;;5055442;28;20010;-65
2022/07/04 00:51:32;;;;;;;;;;;15.80;99.90;;;;;;5055794;28;19917;-66
2022/07/04 00:53:59;;;;;;;;;;;15.80;99.90;;;;;;5087355;28;19916;-66
2022/07/04 00:56:26;;;;;;;;;;;15.70;99.90;;;;;;5087585;28;20387;-66
2022/07/04 00:58:53;;;;;;;;;;;15.70;99.90;;;;;;5055937;28;19916;-66
2022/07/04 01:01:21;;;;;;;;;;;15.60;99.90;;;;;;5055008;28;19928;-66
2022/07/04 01:03:49;;;;;;;;;;;15.60;99.90;;;;;;5088148;28;20280;-66
2022/07/04 01:06:16;;;;;;;;;;;15.60;99.90;;;;;;5054971;28;19946;-66
2022/07/04 01:08:43;;;;;;;;;;;15.50;99.90;;;;;;5055976;28;20264;-66
2022/07/04 01:11:10;;;;;;;;;;;15.50;99.90;;;;;;5087110;28;19923;-66
2022/07/04 01:13:36;;;;;;;;;;;15.50;99.90;;;;;;5087165;28;19917;-66
2022/07/04 01:16:03;;;;;;;;;;;15.40;99.90;;;;;;5087089;28;19939;-66
2022/07/04 01:18:31;;;;;;;;;;;15.40;99.90;;;;;;5055003;28;19924;-66
2022/07/04 01:20:57;;;;;;;;;;;15.30;99.90;;;;;;5054966;28;19917;-66
2022/07/04 01:23:24;;;;;;;;;;;15.20;99.90;;;;;;5055689;28;19917;-66
2022/07/04 01:25:52;;;;;;;;;;;15.20;99.90;;;;;;5053473;28;19999;-66
2022/07/04 01:28:19;;;;;;;;;;;15.10;99.90;;;;;;5055341;28;19917;-66
2022/07/04 01:30:46;;;;;;;;;;;15.10;99.90;;;;;;5055235;28;19916;-66
2022/07/04 01:33:13;;;;;;;;;;;15.10;99.90;;;;;;5054420;28;19926;-66
2022/07/04 01:35:40;;;;;;;;;;;15.10;99.90;;;;;;5054168;28;19924;-66
2022/07/04 01:38:07;;;;;;;;;;;15.00;99.90;;;;;;5054258;28;19917;-66
2022/07/04 01:40:33;;;;;;;;;;;15.10;99.90;;;;;;5055186;28;19916;-66
2022/07/04 01:43:00;;;;;;;;;;;15.00;99.90;;;;;;5054410;28;20268;-66
2022/07/04 01:45:27;;;;;;;;;;;15.00;99.90;;;;;;5054126;28;19916;-66
2022/07/04 01:47:54;;;;;;;;;;;14.90;99.90;;;;;;5054737;28;19917;-67
2022/07/04 01:50:21;;;;;;;;;;;14.90;99.90;;;;;;5054030;28;20369;-66
2022/07/04 01:52:48;;;;;;;;;;;14.80;99.90;;;;;;5054116;28;19917;-66
2022/07/04 01:55:14;;;;;;;;;;;14.70;99.90;;;;;;5053686;28;19917;-66
2022/07/04 01:57:41;;;;;;;;;;;14.60;99.90;;;;;;5053356;28;19924;-66
2022/07/04 02:02:56;;;;;;;;;;;14.60;99.90;;;;;;5081728;28;20225;-66
2022/07/04 02:05:24;;;;;;;;;;;14.50;99.90;;;;;;5086533;28;19917;-66
2022/07/04 02:07:51;;;;;;;;;;;14.40;99.90;;;;;;5085721;28;19916;-66
2022/07/04 02:10:17;;;;;;;;;;;14.40;99.90;;;;;;5086306;28;19920;-66
2022/07/04 02:13:03;;;;;;;;;;;14.30;99.90;;;;;;5053675;28;20375;-66
2022/07/04 02:15:31;;;;;;;;;;;14.30;99.90;;;;;;5053689;28;19916;-66
2022/07/04 02:17:59;;;;;;;;;;;14.20;99.90;;;;;;5054098;28;19917;-66
2022/07/04 02:20:25;;;;;;;;;;;14.10;99.90;;;;;;5086783;28;19917;-66
2022/07/04 02:22:52;;;;;;;;;;;14.00;99.90;;;;;;5054334;28;20370;-66
2022/07/04 02:25:19;;;;;;;;;;;14.00;99.90;;;;;;5053838;28;19916;-66
2022/07/04 02:27:46;;;;;;;;;;;13.90;99.90;;;;;;5053422;28;20307;-66
2022/07/04 02:30:13;;;;;;;;;;;13.80;99.90;;;;;;5069203;28;19944;-66
2022/07/04 02:32:39;;;;;;;;;;;13.80;99.90;;;;;;5053453;28;19917;-66
2022/07/04 02:35:06;;;;;;;;;;;13.80;99.90;;;;;;5053399;28;20364;-66
2022/07/04 02:37:33;;;;;;;;;;;13.70;99.90;;;;;;5054445;28;19917;-66
2022/07/04 02:40:00;;;;;;;;;;;13.70;99.90;;;;;;5053595;28;19928;-66
2022/07/04 02:42:30;;;;;;;;;;;13.60;99.90;;;;;;5085974;28;20279;-66
2022/07/04 02:44:57;;;;;;;;;;;13.60;99.90;;;;;;5053580;28;19924;-66
2022/07/04 02:47:24;;;;;;;;;;;13.60;99.90;;;;;;5086168;28;19916;-66
2022/07/04 02:49:51;;;;;;;;;;;13.50;99.90;;;;;;5053539;28;19917;-66
2022/07/04 02:52:18;;;;;;;;;;;13.50;99.90;;;;;;5054120;28;19917;-66
2022/07/04 02:54:46;;;;;;;;;;;13.50;99.90;;;;;;5054319;28;19923;-66
2022/07/04 02:57:13;;;;;;;;;;;13.40;99.90;;;;;;5085457;28;20305;-66
2022/07/04 02:59:40;;;;;;;;;;;13.40;99.90;;;;;;5085423;28;19917;-66
2022/07/04 03:02:07;;;;;;;;;;;13.30;99.90;;;;;;5053920;28;19924;-66
2022/07/04 03:04:34;;;;;;;;;;;13.30;99.90;;;;;;5053397;28;20383;-66
2022/07/04 03:07:01;;;;;;;;;;;13.20;99.90;;;;;;5052828;28;20356;-66
2022/07/04 03:09:28;;;;;;;;;;;13.20;99.90;;;;;;5055969;28;20352;-66
2022/07/04 03:11:55;;;;;;;;;;;13.10;99.90;;;;;;5056701;28;19923;-66
2022/07/04 03:14:21;;;;;;;;;;;13.10;99.90;;;;;;5057024;28;19917;-66
2022/07/04 03:16:48;;;;;;;;;;;13.00;99.90;;;;;;5057140;28;19923;-66
2022/07/04 03:19:17;;;;;;;;;;;13.00;99.90;;;;;;5057728;28;20244;-66
2022/07/04 03:21:44;;;;;;;;;;;13.00;99.90;;;;;;5056748;28;19920;-66
2022/07/04 03:24:11;;;;;;;;;;;12.90;99.90;;;;;;5088757;28;19916;-66
2022/07/04 03:26:38;;;;;;;;;;;12.90;99.90;;;;;;5055806;28;19917;-65
2022/07/04 03:29:04;;;;;;;;;;;12.90;99.90;;;;;;5056700;28;19916;-65
2022/07/04 03:31:31;;;;;;;;;;;12.90;99.90;;;;;;5056662;28;19916;-65
2022/07/04 03:33:58;;;;;;;;;;;12.80;99.90;;;;;;5056774;28;20360;-65
2022/07/04 03:36:25;;;;;;;;;;;12.80;99.90;;;;;;5089005;28;19923;-65
2022/07/04 03:38:52;;;;;;;;;;;12.80;99.90;;;;;;5057151;28;19923;-65
2022/07/04 03:41:18;;;;;;;;;;;12.80;99.90;;;;;;5056466;28;19916;-66
2022/07/04 03:43:45;;;;;;;;;;;12.70;99.90;;;;;;5056407;28;20344;-66
2022/07/04 03:46:12;;;;;;;;;;;12.70;99.90;;;;;;5056332;28;19916;-66
2022/07/04 03:48:39;;;;;;;;;;;12.70;99.90;;;;;;5056259;28;19916;-66
2022/07/04 03:51:06;;;;;;;;;;;12.70;99.90;;;;;;5057516;28;19916;-66
2022/07/04 03:53:33;;;;;;;;;;;12.70;99.90;;;;;;5056600;28;19924;-66
2022/07/04 03:55:59;;;;;;;;;;;12.70;99.90;;;;;;5057323;28;20182;-66
2022/07/04 03:58:26;;;;;;;;;;;12.70;99.90;;;;;;5088721;28;19916;-66
2022/07/04 04:00:53;;;;;;;;;;;12.70;99.90;;;;;;5072330;28;19917;-66
2022/07/04 04:06:05;;;;;;;;;;;12.80;99.90;;;;;;5057063;28;19916;-66
2022/07/04 04:08:32;;;;;;;;;;;12.80;99.90;;;;;;5088022;28;19923;-66
2022/07/04 04:10:59;;;;;;;;;;;12.80;99.90;;;;;;5056133;28;19943;-66
2022/07/04 04:13:26;;;;;;;;;;;12.90;99.90;;;;;;5056202;28;19923;-66
2022/07/04 04:15:52;;;;;;;;;;;12.90;99.90;;;;;;5056162;28;20352;-66
2022/07/04 04:18:19;;;;;;;;;;;13.00;99.90;;;;;;5055817;28;19917;-66
2022/07/04 04:20:46;;;;;;;;;;;13.00;99.90;;;;;;5087427;28;19917;-66
2022/07/04 04:23:13;;;;;;;;;;;13.00;99.90;;;;;;5056534;28;20016;-66
2022/07/04 04:25:40;;;;;;;;;;;13.10;99.90;;;;;;5055622;28;19917;-66
2022/07/04 04:28:07;;;;;;;;;;;13.10;99.90;;;;;;5071259;28;19920;-66
2022/07/04 04:30:33;;;;;;;;;;;13.20;99.90;;;;;;5055135;28;19939;-66
2022/07/04 04:33:00;;;;;;;;;;;13.20;99.90;;;;;;5055481;28;20356;-66
2022/07/04 04:35:27;;;;;;;;;;;13.20;99.90;;;;;;5055877;28;19924;-66
2022/07/04 04:37:54;;;;;;;;;;;13.20;99.90;;;;;;5055510;28;20292;-66
2022/07/04 04:40:20;;;;;;;;;;;13.20;99.90;;;;;;5088095;28;19920;-66
2022/07/04 04:42:47;;;;;;;;;;;13.30;99.90;;;;;;5055636;28;19917;-66
2022/07/04 04:45:15;;;;;;;;;;;13.40;99.90;;;;;;5055276;28;19916;-66
2022/07/04 04:47:43;;;;;;;;;;;13.60;99.90;;;;;;5056198;28;19917;-65
2022/07/04 04:50:14;;;;;;;;;;;13.80;99.90;;;;;;5055128;28;19928;-65
2022/07/04 04:52:41;;;;;;;;;;;13.90;99.90;;;;;;5055358;28;20275;-65
2022/07/04 04:55:08;;;;;;;;;;;14.10;99.90;;;;;;5088215;28;19924;-65
2022/07/04 04:57:35;;;;;;;;;;;14.40;99.90;;;;;;5055892;28;19921;-65
2022/07/04 05:00:04;;;;;;;;;;;15.00;99.90;;;;;;5055816;28;19923;-65
2022/07/04 05:02:31;;;;;;;;;;;15.70;99.90;;;;;;5054950;28;19916;-65
2022/07/04 05:04:57;;;;;;;;;;;16.00;99.90;;;;;;5055192;28;19916;-66
2022/07/04 05:07:24;;;;;;;;;;;16.10;99.90;;;;;;5054835;28;19920;-66
2022/07/04 05:09:58;;;;;;;;;;;16.20;99.90;;;;;;5054577;28;20361;-66
2022/07/04 05:12:25;;;;;;;;;;;16.10;99.90;;;;;;5055539;28;19920;-65
2022/07/04 05:14:52;;;;;;;;;;;16.10;99.90;;;;;;5054535;28;19966;-66
2022/07/04 05:17:19;;;;;;;;;;;15.90;99.90;;;;;;5054887;28;19923;-66
2022/07/04 05:19:47;;;;;;;;;;;15.80;99.90;;;;;;5054531;28;20271;-66
2022/07/04 05:22:14;;;;;;;;;;;15.70;99.90;;;;;;5054770;28;19931;-66
2022/07/04 05:24:41;;;;;;;;;;;15.60;99.90;;;;;;5086502;28;19930;-66
2022/07/04 05:27:09;;;;;;;;;;;15.60;99.90;;;;;;5054311;28;19954;-66
2022/07/04 05:29:35;;;;;;;;;;;15.70;99.90;;;;;;5054863;28;19917;-66
2022/07/04 05:32:02;;;;;;;;;;;15.80;99.90;;;;;;5085910;28;19917;-66
2022/07/04 05:34:29;;;;;;;;;;;15.80;99.90;;;;;;5054589;28;19923;-66
2022/07/04 05:36:56;;;;;;;;;;;15.90;99.90;;;;;;5054606;28;19917;-66
2022/07/04 05:39:23;;;;;;;;;;;16.00;99.90;;;;;;5054110;28;20357;-66
2022/07/04 05:41:50;;;;;;;;;;;16.00;99.90;;;;;;5054213;28;20356;-66
2022/07/04 05:44:16;;;;;;;;;;;16.20;99.90;;;;;;5054483;28;19921;-65
2022/07/04 05:46:43;;;;;;;;;;;16.20;99.90;;;;;;5055333;28;19917;-73
2022/07/04 05:49:10;;;;;;;;;;;16.20;99.90;;;;;;5086448;28;19923;-78
2022/07/04 05:51:37;;;;;;;;;;;16.20;99.90;;;;;;5053964;28;19917;-73
2022/07/04 05:54:04;;;;;;;;;;;16.30;99.90;;;;;;5054634;28;20367;-73
2022/07/04 05:56:31;;;;;;;;;;;16.30;99.90;;;;;;5053473;28;19940;-70
2022/07/04 05:58:57;;;;;;;;;;;16.30;99.90;;;;;;5054739;28;19917;-76
2022/07/04 06:01:24;;;;;;;;;;;16.40;99.90;;;;;;5053783;28;19917;-60
2022/07/04 06:03:51;;;;;;;;;;;16.40;99.90;;;;;;5054977;28;19938;-79
2022/07/04 06:06:18;;;;;;;;;;;16.40;99.90;;;;;;5087137;28;19972;-77
2022/07/04 06:08:45;;;;;;;;;;;16.50;99.90;;;;;;5054079;28;19920;-73
2022/07/04 06:11:11;;;;;;;;;;;16.50;99.90;;;;;;5054404;28;19917;-73
2022/07/04 06:13:38;;;;;;;;;;;16.50;99.90;;;;;;5053738;28;19924;-80
2022/07/04 06:16:05;;;;;;;;;;;16.60;99.90;;;;;;5054102;28;20320;-78
2022/07/04 06:18:32;;;;;;;;;;;16.60;99.90;;;;;;5053902;28;20263;-77
2022/07/04 06:20:59;;;;;;;;;;;16.60;99.90;;;;;;5054745;28;19917;-62
2022/07/04 06:23:25;;;;;;;;;;;16.50;99.90;;;;;;5053517;28;19927;-68
2022/07/04 06:25:52;;;;;;;;;;;16.50;99.90;;;;;;5054737;28;19939;-68
2022/07/04 06:28:19;;;;;;;;;;;16.50;99.90;;;;;;5053658;28;19943;-69
2022/07/04 06:31:07;;;;;;;;;;;16.40;99.90;;;;;;5053334;28;19921;-68
2022/07/04 06:35:44;;;;;;;;;;;16.30;99.90;;;;;;5054176;28;19917;-68
2022/07/04 06:36:20;;;;;;;;;;;16.20;99.90;;;;;;5053403;28;20015;-67
2022/07/04 06:38:47;;;;;;;;;;;16.10;99.90;;;;;;5053350;28;19916;-67
2022/07/04 06:41:14;;;;;;;;;;;16.00;99.90;;;;;;5085402;28;20373;-67
2022/07/04 06:43:41;;;;;;;;;;;16.10;99.90;;;;;;5053441;28;19917;-68
2022/07/04 06:46:07;;;;;;;;;;;16.20;99.90;;;;;;5085376;28;20379;-66
2022/07/04 06:48:34;;;;;;;;;;;16.30;99.90;;;;;;5053172;28;20008;-66
2022/07/04 06:51:01;;;;;;;;;;;16.50;99.90;;;;;;5053530;28;20253;-67
2022/07/04 06:53:28;;;;;;;;;;;16.70;99.90;;;;;;5085735;28;19916;-67
2022/07/04 06:55:55;;;;;;;;;;;16.80;99.90;;;;;;5053182;28;19916;-68
2022/07/04 06:58:21;;;;;;;;;;;16.80;99.90;;;;;;5053190;28;19921;-68
2022/07/04 07:00:48;;;;;;;;;;;16.80;99.90;;;;;;5053101;28;19924;-67
2022/07/04 07:03:15;;;;;;;;;;;16.80;99.90;;;;;;5053113;28;19923;-66
2022/07/04 07:05:42;;;;;;;;;;;16.80;99.90;;;;;;5053329;28;19917;-67
2022/07/04 07:08:26;;;;;;;;;;;16.80;99.90;;;;;;5081895;28;19963;-69
2022/07/04 07:10:53;;;;;;;;;;;16.90;99.90;;;;;;5052937;28;19924;-67
2022/07/04 07:13:20;;;;;;;;;;;17.00;99.90;;;;;;5053913;28;19916;-72
2022/07/04 07:15:46;;;;;;;;;;;17.10;99.90;;;;;;5053101;28;19917;-79
2022/07/04 07:18:14;;;;;;;;;;;17.20;99.90;;;;;;5053091;28;19917;-79
2022/07/04 07:20:40;;;;;;;;;;;17.30;99.90;;;;;;5053167;28;19917;-81
2022/07/04 07:23:08;;;;;;;;;;;17.50;99.90;;;;;;5053080;28;19947;-70
2022/07/04 07:25:34;;;;;;;;;;;17.70;99.90;;;;;;5086079;28;19916;-76
2022/07/04 07:28:02;;;;;;;;;;;17.80;99.90;;;;;;5053034;28;19916;-74
2022/07/04 07:30:29;;;;;;;;;;;17.90;99.90;;;;;;5052857;28;19936;-78
2022/07/04 07:32:56;;;;;;;;;;;17.90;99.90;;;;;;5053489;28;19943;-77
2022/07/04 07:35:23;;;;;;;;;;;17.90;99.90;;;;;;5053254;28;19917;-73
2022/07/04 07:37:49;;;;;;;;;;;18.00;99.90;;;;;;5054036;28;19917;-77
2022/07/04 07:40:16;;;;;;;;;;;18.10;99.90;;;;;;5053150;28;19927;-76
2022/07/04 07:42:45;;;;;;;;;;;18.10;99.90;;;;;;5053106;28;19916;-74
2022/07/04 07:45:12;;;;;;;;;;;18.10;99.90;;;;;;5051904;28;20268;-74
2022/07/04 07:47:39;;;;;;;;;;;18.20;99.90;;;;;;5052885;28;19966;-77
2022/07/04 07:50:06;;;;;;;;;;;18.20;99.90;;;;;;5053206;28;19920;-70
2022/07/04 07:52:33;;;;;;;;;;;18.30;99.90;;;;;;5085003;28;19917;-70
2022/07/04 07:55:00;;;;;;;;;;;18.30;99.90;;;;;;5054961;28;19939;-71
2022/07/04 07:57:28;;;;;;;;;;;18.30;99.90;;;;;;5055406;28;19916;-70
2022/07/04 07:59:55;;;;;;;;;;;18.30;99.90;;;;;;5088721;28;19917;-70
2022/07/04 08:05:08;;;;;;;;;;;18.30;99.90;;;;;;5083223;28;19924;-70
2022/07/04 08:07:34;;;;;;;;;;;18.40;99.90;;;;;;5056544;28;19931;-68
2022/07/04 08:10:01;;;;;;;;;;;18.40;99.90;;;;;;5055864;28;19916;-68
2022/07/04 08:12:28;;;;;;;;;;;18.50;99.90;;;;;;5088751;28;19939;-70
2022/07/04 08:14:55;;;;;;;;;;;18.50;99.80;;;;;;5056476;28;19931;-67
2022/07/04 08:17:22;;;;;;;;;;;18.50;99.40;;;;;;5055885;28;19916;-73
2022/07/04 08:19:49;;;;;;;;;;;18.60;99.70;;;;;;5071305;28;19924;-72
2022/07/04 08:22:16;;;;;;;;;;;18.70;98.20;;;;;;5055663;28;20360;-69
2022/07/04 08:24:43;;;;;;;;;;;18.90;99.90;;;;;;5056221;28;19916;-71
2022/07/04 08:27:10;;;;;;;;;;;19.00;97.50;;;;;;5054730;28;20019;-71
2022/07/04 08:29:37;;;;;;;;;;;19.20;98.40;;;;;;5055620;28;19917;-69
2022/07/04 08:32:07;;;;;;;;;;;19.20;97.10;;;;;;5054739;28;19922;-70
2022/07/04 08:34:34;;;;;;;;;;;19.20;95.00;;;;;;5054673;28;19920;-69
2022/07/04 08:37:01;;;;;;;;;;;19.30;94.20;;;;;;5056384;28;19920;-70
2022/07/04 08:39:31;;;;;;;;;;;19.30;95.10;;;;;;5055998;28;20047;-71
2022/07/04 08:41:59;;;;;;;;;;;19.40;95.70;;;;;;5087761;28;20019;-69
2022/07/04 08:44:26;;;;;;;;;;;19.50;94.00;;;;;;5055700;28;19920;-70
2022/07/04 08:46:53;;;;;;;;;;;19.60;94.80;;;;;;5087446;28;19923;-70
2022/07/04 08:49:21;;;;;;;;;;;19.80;95.40;;;;;;5055188;28;20352;-70
2022/07/04 08:51:52;;;;;;;;;;;20.00;91.10;;;;;;5087882;28;20229;-70
2022/07/04 08:59:55;;;;;;;;;;;19.90;90.10;;;;;;5082295;28;19917;-69
2022/07/04 09:02:22;;;;;;;;;;;19.90;89.40;;;;;;5055374;28;19917;-70
2022/07/04 09:04:49;;;;;;;;;;;19.90;89.30;;;;;;5055801;28;20229;-70
2022/07/04 09:07:17;;;;;;;;;;;19.80;90.20;;;;;;5052602;28;19921;-70
2022/07/04 09:09:44;;;;;;;;;;;19.80;89.10;;;;;;5054843;28;19917;-70
2022/07/04 09:12:17;;;;;;;;;;;19.90;90.30;;;;;;5070295;28;19956;-70
2022/07/04 09:14:44;;;;;;;;;;;20.10;87.50;;;;;;5055098;28;19924;-70
2022/07/04 09:17:11;;;;;;;;;;;20.10;88.20;;;;;;5055133;28;19920;-69
2022/07/04 09:19:38;;;;;;;;;;;20.30;88.90;;;;;;5055596;28;20009;-69
2022/07/04 09:22:07;;;;;;;;;;;20.50;85.70;;;;;;5087155;28;19924;-69
2022/07/04 09:24:43;;;;;;;;;;;20.60;84.70;;;;;;5086899;28;19923;-70
2022/07/04 09:27:10;;;;;;;;;;;20.70;85.30;;;;;;5086993;28;19962;-68
2022/07/04 09:29:55;;;;;;;;;;;21.00;84.50;;;;;;5055517;28;19917;-69
2022/07/04 09:32:43;;;;;;;;;;;21.10;82.90;;;;;;5054500;28;20087;-71
2022/07/04 09:35:10;;;;;;;;;;;21.20;83.00;;;;;;5055578;28;20003;-69
2022/07/04 09:37:38;;;;;;;;;;;21.30;80.00;;;;;;5054689;28;19924;-70
2022/07/04 09:40:06;;;;;;;;;;;21.40;78.20;;;;;;5054599;28;19917;-69
2022/07/04 09:42:36;;;;;;;;;;;21.30;77.50;;;;;;5086980;28;20194;-70
2022/07/04 09:45:04;;;;;;;;;;;21.40;77.90;;;;;;5054822;28;19999;-68
2022/07/04 09:47:31;;;;;;;;;;;21.40;78.80;;;;;;5055214;28;19924;-68
2022/07/04 09:50:18;;;;;;;;;;;21.40;79.20;;;;;;5069448;28;20374;-67
2022/07/04 09:52:45;;;;;;;;;;;21.50;80.20;;;;;;5055254;28;19917;-67
2022/07/04 09:55:12;;;;;;;;;;;21.50;81.30;;;;;;5055193;28;20256;-67
2022/07/04 09:57:43;;;;;;;;;;;21.50;78.10;;;;;;5054424;28;19924;-67
2022/07/04 10:00:17;;;;;;;;;;;21.50;81.00;;;;;;5054074;28;19923;-67
2022/07/04 10:02:44;;;;;;;;;;;21.40;78.20;;;;;;5053938;28;19917;-67
2022/07/04 10:05:11;;;;;;;;;;;21.30;78.60;;;;;;5054860;28;19917;-66
2022/07/04 10:07:45;;;;;;;;;;;21.30;79.90;;;;;;5053944;28;19970;-66
2022/07/04 10:10:25;;;;;;;;;;;21.40;80.20;;;;;;5053915;28;19917;-67
2022/07/04 10:12:52;;;;;;;;;;;21.60;80.40;;;;;;5053839;28;19960;-68
2022/07/04 10:15:19;;;;;;;;;;;21.70;77.30;;;;;;5053825;28;20003;-67
2022/07/04 10:17:46;;;;;;;;;;;21.70;75.80;;;;;;5054578;28;19917;-67
2022/07/04 10:20:13;;;;;;;;;;;21.60;78.20;;;;;;5054958;28;19963;-67
2022/07/04 10:22:40;;;;;;;;;;;21.60;78.60;;;;;;5053715;28;20371;-67
2022/07/04 10:25:07;;;;;;;;;;;21.60;79.20;;;;;;5053632;28;19995;-67
2022/07/04 10:27:34;;;;;;;;;;;21.60;78.60;;;;;;5085887;28;19924;-67
2022/07/04 10:30:01;;;;;;;;;;;21.60;77.90;;;;;;5052253;28;19922;-67
2022/07/04 10:32:28;;;;;;;;;;;21.40;77.90;;;;;;5053879;28;20268;-68
2022/07/04 10:34:55;;;;;;;;;;;21.40;78.40;;;;;;5054345;28;19916;-67
2022/07/04 10:37:21;;;;;;;;;;;21.30;77.80;;;;;;5053987;28;19917;-67
2022/07/04 10:39:48;;;;;;;;;;;21.20;78.20;;;;;;5053448;28;20415;-68
2022/07/04 10:42:24;;;;;;;;;;;21.10;79.30;;;;;;5053308;28;19917;-67
2022/07/04 10:44:52;;;;;;;;;;;21.20;82.60;;;;;;5085302;28;19917;-67
2022/07/04 10:47:30;;;;;;;;;;;21.20;79.90;;;;;;5053329;28;19917;-67
2022/07/04 10:49:58;;;;;;;;;;;21.30;79.10;;;;;;5053565;28;19927;-67
2022/07/04 10:52:25;;;;;;;;;;;21.30;82.50;;;;;;5053632;28;19923;-67
2022/07/04 10:54:52;;;;;;;;;;;21.40;79.70;;;;;;5053539;28;19939;-67
2022/07/04 10:57:20;;;;;;;;;;;21.30;78.70;;;;;;5085559;28;19964;-67
2022/07/04 10:59:53;;;;;;;;;;;21.30;77.30;;;;;;5053470;28;20354;-67
2022/07/04 11:02:22;;;;;;;;;;;21.30;78.10;;;;;;5053475;28;19923;-65
2022/07/04 11:04:51;;;;;;;;;;;21.20;78.30;;;;;;5053539;28;19923;-69
2022/07/04 11:07:19;;;;;;;;;;;21.50;79.80;;;;;;5053374;28;19916;-66
2022/07/04 11:09:47;;;;;;;;;;;21.70;77.50;;;;;;5084921;28;19917;-70
2022/07/04 11:12:14;;;;;;;;;;;21.70;76.10;;;;;;5054441;28;19917;-66
2022/07/04 11:14:49;;;;;;;;;;;21.70;76.20;;;;;;5053852;28;19917;-65
2022/07/04 11:17:20;;;;;;;;;;;21.50;77.00;;;;;;5053901;28;19921;-66
2022/07/04 11:19:47;;;;;;;;;;;21.60;77.90;;;;;;5053353;28;19932;-68
2022/07/04 11:22:21;;;;;;;;;;;21.70;78.80;;;;;;5085237;28;19943;-67
2022/07/04 11:24:47;;;;;;;;;;;21.90;78.30;;;;;;5053738;28;19951;-64
2022/07/04 11:27:15;;;;;;;;;;;22.00;75.40;;;;;;5053098;28;19924;-66
2022/07/04 11:29:51;;;;;;;;;;;22.00;76.70;;;;;;5054583;28;19942;-65
2022/07/04 11:32:18;;;;;;;;;;;22.10;80.60;;;;;;5056825;28;19939;-70
2022/07/04 11:34:46;;;;;;;;;;;22.30;76.90;;;;;;5056655;28;19917;-68
2022/07/04 11:37:12;;;;;;;;;;;22.20;76.10;;;;;;5088613;28;19916;-70
2022/07/04 11:39:39;;;;;;;;;;;22.20;76.20;;;;;;5055754;28;20241;-67
2022/07/04 11:45:04;;;;;;;;;;;22.30;75.30;;;;;;5056563;28;19917;-69
2022/07/04 11:47:32;;;;;;;;;;;22.50;75.60;;;;;;5057580;28;20264;-69
2022/07/04 11:49:59;;;;;;;;;;;22.50;73.40;;;;;;5055276;28;19923;-68
2022/07/04 11:52:29;;;;;;;;;;;22.70;74.70;;;;;;5089544;28;19917;-70
2022/07/04 11:55:17;;;;;;;;;;;22.70;73.90;;;;;;5055506;28;20432;-70
2022/07/04 11:57:44;;;;;;;;;;;22.70;75.40;;;;;;5057287;28;19925;-67
2022/07/04 12:00:12;;;;;;;;;;;22.90;74.20;;;;;;5056483;28;19917;-70
2022/07/04 12:02:47;;;;;;;;;;;23.00;74.70;;;;;;5088491;28;19916;-70
2022/07/04 12:05:14;;;;;;;;;;;23.00;74.30;;;;;;5056772;28;19916;-70
2022/07/04 12:07:42;;;;;;;;;;;23.20;73.80;;;;;;5056386;28;19986;-70
2022/07/04 12:10:31;;;;;;;;;;;23.30;72.40;;;;;;5056199;28;20412;-70
2022/07/04 12:12:58;;;;;;;;;;;23.60;71.00;;;;;;5056110;28;19917;-74
2022/07/04 12:15:26;;;;;;;;;;;23.70;75.10;;;;;;5056003;28;20280;-65
2022/07/04 12:17:54;;;;;;;;;;;23.90;72.10;;;;;;5088523;28;19917;-65
2022/07/04 12:20:22;;;;;;;;;;;24.00;72.40;;;;;;5056113;28;19923;-65
2022/07/04 12:22:49;;;;;;;;;;;23.90;70.80;;;;;;5055778;28;20349;-64
2022/07/04 12:25:26;;;;;;;;;;;23.60;72.20;;;;;;5055918;28;19927;-65
2022/07/04 12:27:57;;;;;;;;;;;23.20;72.50;;;;;;5055893;28;19939;-65
2022/07/04 12:30:24;;;;;;;;;;;23.00;71.60;;;;;;5056457;28;19916;-64
2022/07/04 12:32:52;;;;;;;;;;;22.80;72.30;;;;;;5056443;28;20248;-63
2022/07/04 12:35:31;;;;;;;;;;;22.60;72.40;;;;;;5055813;28;20297;-64
2022/07/04 12:38:01;;;;;;;;;;;22.50;72.40;;;;;;5087909;28;19923;-65
2022/07/04 12:40:28;;;;;;;;;;;22.50;72.10;;;;;;5055613;28;19917;-65
2022/07/04 12:42:56;;;;;;;;;;;22.50;71.80;;;;;;5087756;28;20317;-64
2022/07/04 12:45:23;;;;;;;;;;;22.50;73.10;;;;;;5055419;28;19916;-64
2022/07/04 12:47:50;;;;;;;;;;;22.60;72.50;;;;;;5088575;28;19916;-64
2022/07/04 12:50:27;;;;;;;;;;;22.90;71.80;;;;;;5054292;28;19923;-64
2022/07/04 12:52:54;;;;;;;;;;;23.10;70.40;;;;;;5053999;28;19959;-64
2022/07/04 12:55:27;;;;;;;;;;;23.50;71.40;;;;;;5056382;28;19927;-66
2022/07/04 12:57:54;;;;;;;;;;;23.70;70.10;;;;;;5087232;28;19924;-69
2022/07/04 13:00:21;;;;;;;;;;;23.90;69.00;;;;;;5055934;28;19982;-70
2022/07/04 13:03:04;;;;;;;;;;;23.90;68.70;;;;;;5055720;28;19932;-67
2022/07/04 13:05:32;;;;;;;;;;;23.90;69.30;;;;;;5087166;28;19958;-68
2022/07/04 13:07:59;;;;;;;;;;;24.00;71.20;;;;;;5054948;28;20403;-64
2022/07/04 13:10:27;;;;;;;;;;;24.20;70.70;;;;;;5055195;28;19921;-67
2022/07/04 13:12:54;;;;;;;;;;;24.40;66.90;;;;;;5056609;28;19916;-67
2022/07/04 13:15:21;;;;;;;;;;;24.50;69.10;;;;;;5055095;28;19916;-66
2022/07/04 13:17:48;;;;;;;;;;;24.40;67.40;;;;;;5054832;28;19946;-68
2022/07/04 13:20:15;;;;;;;;;;;24.20;67.60;;;;;;5054994;28;19924;-68
2022/07/04 13:22:42;;;;;;;;;;;24.00;67.60;;;;;;5054913;28;19920;-68
2022/07/04 13:25:09;;;;;;;;;;;23.70;68.70;;;;;;5054793;28;19927;-68
2022/07/04 13:27:35;;;;;;;;;;;23.70;70.00;;;;;;5054469;28;20364;-70
2022/07/04 13:30:02;;;;;;;;;;;23.70;70.10;;;;;;5054268;28;20390;-69
2022/07/04 13:32:29;;;;;;;;;;;23.60;68.00;;;;;;5053288;28;20305;-69
2022/07/04 13:34:56;;;;;;;;;;;23.50;69.10;;;;;;5069563;28;19917;-67
2022/07/04 13:37:23;;;;;;;;;;;23.50;68.80;;;;;;5054776;28;20324;-72
2022/07/04 13:39:50;;;;;;;;;;;23.30;69.80;;;;;;5053342;28;19916;-70
2022/07/04 13:42:56;;;;;;;;;;;23.40;71.60;;;;;;5054113;28;19916;-71
2022/07/04 13:45:05;;;;;;;;;;;23.50;70.60;;;;;;5054275;28;20359;-69
2022/07/04 13:47:32;;;;;;;;;;;23.70;69.30;;;;;;5087198;28;19920;-70
2022/07/04 13:49:59;;;;;;;;;;;23.80;69.10;;;;;;5054972;28;20228;-68
2022/07/04 13:52:29;;;;;;;;;;;23.50;68.30;;;;;;5085546;28;19916;-68
2022/07/04 13:54:56;;;;;;;;;;;23.40;69.60;;;;;;5053534;28;20283;-69
2022/07/04 13:57:22;;;;;;;;;;;23.60;70.80;;;;;;5053972;28;19923;-67
2022/07/04 13:59:49;;;;;;;;;;;23.50;69.60;;;;;;5055062;28;19916;-69
2022/07/04 14:02:16;;;;;;;;;;;23.40;69.70;;;;;;5053823;28;19917;-69
2022/07/04 14:04:43;;;;;;;;;;;23.70;69.70;;;;;;5053834;28;20349;-67
2022/07/04 14:07:10;;;;;;;;;;;24.10;68.20;;;;;;5052483;28;19923;-69
2022/07/04 14:09:44;;;;;;;;;;;24.30;67.50;;;;;;5053721;28;19947;-67
2022/07/04 14:12:11;;;;;;;;;;;24.40;66.50;;;;;;5053506;28;19920;-69
2022/07/04 14:14:38;;;;;;;;;;;24.40;67.10;;;;;;5085857;28;19920;-70
2022/07/04 14:17:04;;;;;;;;;;;24.40;68.00;;;;;;5069384;28;19917;-67
2022/07/04 14:19:51;;;;;;;;;;;24.40;66.90;;;;;;5080387;28;19917;-67
2022/07/04 14:22:19;;;;;;;;;;;24.20;67.30;;;;;;5069152;28;20007;-65
2022/07/04 14:24:45;;;;;;;;;;;24.10;67.50;;;;;;5054605;28;20193;-67
2022/07/04 14:27:12;;;;;;;;;;;24.00;67.90;;;;;;5085767;28;19972;-68
2022/07/04 14:29:40;;;;;;;;;;;23.80;68.60;;;;;;5068988;28;19924;-66
2022/07/04 14:32:09;;;;;;;;;;;23.60;68.80;;;;;;5084552;28;19924;-63
2022/07/04 14:34:36;;;;;;;;;;;23.50;69.10;;;;;;5053553;28;19916;-73
2022/07/04 14:37:03;;;;;;;;;;;23.50;69.30;;;;;;5068863;28;19917;-76